createdAt,value
2023-04-17T00:02:12.131Z,100820.53
2023-04-17T00:04:42.101Z,100818.50
2023-04-17T00:07:09.504Z,100818.88
2023-04-17T00:09:37.490Z,100825.19
2023-04-17T00:12:13.154Z,100825.19
2023-04-17T00:14:39.876Z,100823.03
2023-04-17T00:17:06.797Z,100816.81
2023-04-17T00:19:51.178Z,100823.34
2023-04-17T00:22:17.891Z,100822.88
2023-04-17T00:24:53.470Z,100824.22
2023-04-17T00:27:20.451Z,100821.72
2023-04-17T00:29:47.210Z,100820.06
2023-04-17T00:32:13.918Z,100826.94
2023-04-17T00:34:47.262Z,100811.59
2023-04-17T00:37:14.023Z,100812.75
2023-04-17T00:39:40.761Z,100821.28
2023-04-17T00:42:14.692Z,100819.75
2023-04-17T00:44:41.405Z,100821.28
2023-04-17T00:47:08.758Z,100819.78
2023-04-17T00:49:36.605Z,100820.97
2023-04-17T00:52:06.755Z,100820.31
2023-04-17T00:54:33.657Z,100815.00
2023-04-17T00:57:07.877Z,100812.09
2023-04-17T00:59:36.244Z,100818.75
2023-04-17T01:02:06.204Z,100818.94
2023-04-17T01:04:45.708Z,100819.09
2023-04-17T01:07:12.502Z,100820.78
2023-04-17T01:09:39.214Z,100813.44
2023-04-17T01:12:35.385Z,100806.78
2023-04-17T01:15:02.581Z,100812.63
2023-04-17T01:17:30.007Z,100811.63
2023-04-17T01:19:57.432Z,100805.63
2023-04-17T01:22:24.212Z,100814.13
2023-04-17T01:24:55.721Z,100813.63
2023-04-17T01:27:24.905Z,100818.97
2023-04-17T01:29:51.575Z,100824.31
2023-04-17T01:32:19.030Z,100824.31
2023-04-17T01:34:51.146Z,100826.97
2023-04-17T01:37:18.643Z,100820.28
2023-04-17T01:39:45.299Z,100813.78
2023-04-17T01:42:12.882Z,100828.31
2023-04-17T01:44:39.536Z,100831.13
2023-04-17T01:47:12.373Z,100835.31
2023-04-17T01:49:39.100Z,100832.31
2023-04-17T01:52:08.124Z,100834.81
2023-04-17T01:54:43.496Z,100833.13
2023-04-17T01:57:10.382Z,100835.47
2023-04-17T01:59:37.255Z,100836.81
2023-04-17T02:02:22.429Z,100840.13
2023-04-17T02:05:00.869Z,100838.31
2023-04-17T02:07:27.616Z,100844.16
2023-04-17T02:09:54.340Z,100850.47
2023-04-17T02:12:31.277Z,100847.63
2023-04-17T02:15:01.171Z,100850.97
2023-04-17T02:17:31.064Z,100851.31
2023-04-17T02:20:01.295Z,100856.16
2023-04-17T02:22:30.525Z,100855.50
2023-04-17T02:24:58.083Z,100864.81
2023-04-17T02:27:29.901Z,100865.81
2023-04-17T02:29:56.661Z,100859.50
2023-04-17T02:32:23.477Z,100856.66
2023-04-17T02:34:50.310Z,100860.66
2023-04-17T02:37:17.399Z,100857.31
2023-04-17T02:39:47.151Z,100856.00
2023-04-17T02:42:13.817Z,100862.13
2023-04-17T02:44:41.452Z,100861.81
2023-04-17T02:47:08.412Z,100856.47
2023-04-17T02:49:38.508Z,100860.81
2023-04-17T02:52:07.085Z,100865.78
2023-04-17T02:54:37.006Z,100857.66
2023-04-17T02:57:05.700Z,100852.13
2023-04-17T02:59:37.862Z,100856.13
2023-04-17T03:02:05.680Z,100862.59
2023-04-17T03:04:39.540Z,100856.13
2023-04-17T03:07:10.423Z,100853.47
2023-04-17T03:09:38.724Z,100850.47
2023-04-17T03:12:05.975Z,100850.59
2023-04-17T03:14:35.766Z,100849.91
2023-04-17T03:17:05.075Z,100853.06
2023-04-17T03:19:39.459Z,100858.56
2023-04-17T03:22:10.029Z,100852.44
2023-04-17T03:24:38.560Z,100854.75
2023-04-17T03:27:07.807Z,100856.88
2023-04-17T03:29:38.595Z,100862.72
2023-04-17T03:32:09.672Z,100859.53
2023-04-17T03:34:37.331Z,100865.19
2023-04-17T03:37:10.479Z,100866.19
2023-04-17T03:39:37.703Z,100874.00
2023-04-17T03:42:08.160Z,100872.00
2023-04-17T03:44:42.725Z,100869.00
2023-04-17T03:47:11.379Z,100870.94
2023-04-17T03:49:41.411Z,100874.78
2023-04-17T03:52:17.139Z,100876.25
2023-04-17T03:54:45.737Z,100876.75
2023-04-17T03:57:13.217Z,100878.72
2023-04-17T04:00:08.464Z,100880.41
2023-04-17T04:02:45.144Z,100884.09
2023-04-17T04:05:13.884Z,100885.75
2023-04-17T04:07:41.152Z,100883.59
2023-04-17T04:10:09.017Z,100879.25
2023-04-17T04:12:44.622Z,100891.56
2023-04-17T04:18:10.400Z,100884.56
2023-04-17T04:20:37.381Z,100894.22
2023-04-17T04:23:16.950Z,100886.56
2023-04-17T04:25:44.788Z,100895.19
2023-04-17T04:28:23.802Z,100905.66
2023-04-17T04:30:54.268Z,100905.28
2023-04-17T04:33:28.030Z,100908.63
2023-04-17T04:36:01.657Z,100904.13
2023-04-17T04:38:30.922Z,100902.00
2023-04-17T04:41:14.957Z,100903.00
2023-04-17T04:43:42.416Z,100911.97
2023-04-17T04:46:10.665Z,100908.78
2023-04-17T04:48:42.821Z,100909.13
2023-04-17T04:51:13.171Z,100906.31
2023-04-17T04:53:43.554Z,100905.19
2023-04-17T04:56:12.908Z,100912.19
2023-04-17T04:58:39.883Z,100914.03
2023-04-17T05:01:07.281Z,100910.69
2023-04-17T05:03:45.842Z,100923.16
2023-04-17T05:06:18.571Z,100919.66
2023-04-17T05:08:49.312Z,100915.47
2023-04-17T05:11:16.661Z,100928.78
2023-04-17T05:13:43.639Z,100923.16
2023-04-17T05:16:24.495Z,100932.78
2023-04-17T05:18:51.574Z,100926.84
2023-04-17T05:21:26.136Z,100929.69
2023-04-17T05:23:54.780Z,100939.88
2023-04-17T05:26:22.626Z,100939.56
2023-04-17T05:28:50.320Z,100935.22
2023-04-17T05:31:22.482Z,100939.69
2023-04-17T05:33:49.432Z,100944.25
2023-04-17T05:36:16.562Z,100945.09
2023-04-17T05:38:46.176Z,100955.28
2023-04-17T05:41:14.290Z,100950.50
2023-04-17T05:43:43.165Z,100959.19
2023-04-17T05:46:10.473Z,100957.22
2023-04-17T05:48:37.813Z,100960.03
2023-04-17T05:51:05.165Z,100957.75
2023-04-17T05:53:33.616Z,100962.03
2023-04-17T05:56:02.462Z,100969.56
2023-04-17T05:58:39.295Z,100963.75
2023-04-17T06:01:07.381Z,100969.91
2023-04-17T06:03:35.416Z,100966.44
2023-04-17T08:42:07.993Z,101251.50
2023-04-17T08:44:50.082Z,101249.50
2023-04-17T08:47:46.648Z,101264.16
2023-04-17T09:24:46.454Z,101277.75
2023-04-17T09:59:27.755Z,101318.03
2023-04-17T10:01:57.955Z,101323.44
2023-04-17T10:04:27.725Z,101322.63
2023-04-17T10:06:57.638Z,101330.16
2023-04-17T10:09:28.275Z,101327.72
2023-04-17T10:11:56.320Z,101328.75
2023-04-17T10:14:29.675Z,101317.53
2023-04-17T10:16:59.899Z,101316.00
2023-04-17T10:19:53.903Z,101316.66
2023-04-17T10:22:29.741Z,101334.22
2023-04-17T10:25:15.623Z,101327.28
2023-04-17T10:28:02.291Z,101322.94
2023-04-17T10:31:24.413Z,101317.75
2023-04-17T11:13:00.919Z,101330.06
2023-04-17T11:38:39.332Z,101329.13
2023-04-17T11:41:08.985Z,101324.22
2023-04-17T11:43:56.340Z,101330.84
2023-04-17T11:46:41.163Z,101330.84
2023-04-17T11:49:22.521Z,101326.41
2023-04-17T11:52:15.744Z,101324.28
2023-04-17T11:55:00.003Z,101323.94
2023-04-17T11:57:30.475Z,101322.09
2023-04-17T12:00:31.214Z,101326.03
2023-04-17T12:03:48.351Z,101339.25
2023-04-17T12:06:34.335Z,101340.06
2023-04-17T12:09:47.764Z,101345.63
2023-04-17T12:13:28.626Z,101338.69
2023-04-17T12:20:19.193Z,101346.69
2023-04-17T12:22:46.143Z,101336.00
2023-04-17T12:26:35.152Z,101329.53
2023-04-17T12:50:54.326Z,101322.88
2023-04-17T13:03:16.304Z,101336.13
2023-04-17T13:05:45.686Z,101334.22
2023-04-17T13:08:16.389Z,101321.69
2023-04-17T13:10:43.132Z,101322.78
2023-04-17T13:13:13.716Z,101323.19
2023-04-17T13:19:08.942Z,101325.88
2023-04-17T13:21:56.377Z,101317.59
2023-04-17T13:24:23.133Z,101320.81
2023-04-17T13:26:59.007Z,101314.75
2023-04-17T13:30:41.644Z,101312.69
2023-04-17T13:33:29.792Z,101309.06
2023-04-17T13:36:00.652Z,101303.09
2023-04-17T13:38:37.686Z,101301.56
2023-04-17T13:41:27.696Z,101296.97
2023-04-17T13:47:16.554Z,101291.16
2023-04-17T13:49:49.451Z,101294.25
2023-04-17T13:52:16.582Z,101283.69
2023-04-17T13:54:58.162Z,101283.47
2023-04-17T13:58:08.107Z,101284.22
2023-04-17T14:01:29.496Z,101283.31
2023-04-17T14:07:35.390Z,101289.75
2023-04-17T14:10:17.289Z,101288.63
2023-04-17T14:12:56.305Z,101287.72
2023-04-17T14:15:28.283Z,101285.53
2023-04-17T14:18:14.734Z,101288.16
2023-04-17T14:20:42.441Z,101285.13
2023-04-17T14:23:12.578Z,101282.31
2023-04-17T14:25:43.031Z,101278.28
2023-04-17T14:28:12.627Z,101273.34
2023-04-17T14:30:45.592Z,101267.97
2023-04-17T14:33:31.517Z,101268.31
2023-04-17T14:35:58.316Z,101253.41
2023-04-17T14:38:31.341Z,101253.41
2023-04-17T14:41:31.867Z,101250.69
2023-04-17T14:48:20.267Z,101258.16
2023-04-17T14:50:57.965Z,101251.56
2023-04-17T14:53:25.450Z,101257.31
2023-04-17T14:56:26.471Z,101257.34
2023-04-17T14:58:58.723Z,101262.25
2023-04-17T15:01:27.077Z,101261.06
2023-04-17T15:04:04.310Z,101261.25
2023-04-17T15:06:32.166Z,101268.06
2023-04-17T15:09:01.790Z,101259.44
2023-04-17T15:11:31.097Z,101257.97
2023-04-17T15:14:00.421Z,101250.09
2023-04-17T15:16:27.883Z,101243.00
2023-04-17T15:19:00.461Z,101242.84
2023-04-17T15:21:27.660Z,101249.69
2023-04-17T15:23:58.496Z,101243.03
2023-04-17T15:26:34.664Z,101237.22
2023-04-17T15:29:03.609Z,101237.41
2023-04-17T15:31:30.787Z,101237.59
2023-04-17T15:34:01.315Z,101234.44
2023-04-17T15:36:45.106Z,101244.19
2023-04-17T15:39:26.111Z,101237.03
2023-04-17T15:41:58.556Z,101234.53
2023-04-17T15:44:46.935Z,101226.63
2023-04-17T15:47:39.973Z,101228.31
2023-04-17T15:55:54.604Z,101229.53
2023-04-17T15:58:36.088Z,101229.13
2023-04-17T16:01:10.099Z,101237.13
2023-04-17T16:04:06.611Z,101236.63
2023-04-17T16:06:50.303Z,101235.78
2023-04-17T16:09:39.820Z,101234.94
2023-04-17T16:12:17.754Z,101236.59
2023-04-17T16:15:00.387Z,101239.94
2023-04-17T16:17:30.289Z,101236.31
2023-04-17T16:20:07.556Z,101232.97
2023-04-17T16:25:31.237Z,101246.34
2023-04-17T16:28:05.479Z,101239.25
2023-04-17T16:30:44.830Z,101239.09
2023-04-17T16:33:12.017Z,101239.88
2023-04-17T16:35:57.868Z,101237.41
2023-04-17T16:38:36.710Z,101236.78
2023-04-17T16:41:23.534Z,101247.66
2023-04-17T16:43:56.820Z,101249.59
2023-04-17T16:46:40.211Z,101240.09
2023-04-17T16:49:39.444Z,101240.19
2023-04-17T16:52:11.711Z,101233.94
2023-04-17T16:54:40.101Z,101246.78
2023-04-17T16:57:11.114Z,101247.91
2023-04-17T16:59:40.501Z,101247.06
2023-04-17T17:02:10.605Z,101244.94
2023-04-17T17:04:40.633Z,101243.81
2023-04-17T17:07:38.057Z,101250.16
2023-04-17T17:10:20.927Z,101244.25
2023-04-17T17:13:08.393Z,101251.91
2023-04-17T17:15:48.909Z,101255.59
2023-04-17T17:18:35.071Z,101254.34
2023-04-17T17:21:03.084Z,101264.19
2023-04-17T17:23:51.208Z,101253.69
2023-04-17T17:26:25.119Z,101265.50
2023-04-17T17:28:57.955Z,101263.44
2023-04-17T17:42:25.650Z,101278.16
2023-04-17T17:44:59.767Z,101288.22
2023-04-17T17:47:34.298Z,101281.31
2023-04-17T17:50:06.820Z,101285.50
2023-04-17T17:52:46.097Z,101293.31
2023-04-17T17:55:36.197Z,101296.91
2023-04-17T17:58:16.186Z,101297.28
2023-04-17T18:01:50.400Z,101296.63
2023-04-17T18:03:54.304Z,101299.13
2023-04-17T18:06:23.226Z,101300.44
2023-04-17T18:08:52.952Z,101302.84
2023-04-17T18:11:24.894Z,101302.84
2023-04-17T18:13:57.677Z,101299.47
2023-04-17T18:19:10.552Z,101304.63
2023-04-17T18:21:50.171Z,101307.16
2023-04-17T18:24:22.259Z,101314.75
2023-04-17T18:27:14.981Z,101309.09
2023-04-17T18:29:45.604Z,101320.97
2023-04-17T18:32:12.839Z,101314.88
2023-04-17T18:34:42.165Z,101324.16
2023-04-17T18:37:17.862Z,101327.13
2023-04-17T18:40:12.875Z,101325.88
2023-04-17T18:42:49.301Z,101335.88
2023-04-17T18:45:32.819Z,101328.88
2023-04-17T18:48:08.963Z,101327.38
2023-04-17T18:50:38.440Z,101338.28
2023-04-17T18:53:05.286Z,101329.44
2023-04-17T18:55:38.059Z,101332.59
2023-04-17T18:58:06.291Z,101334.97
2023-04-17T19:00:33.435Z,101338.50
2023-04-17T19:03:00.364Z,101342.16
2023-04-17T19:05:27.286Z,101335.97
2023-04-17T19:07:55.458Z,101344.31
2023-04-17T19:10:27.302Z,101342.66
2023-04-17T19:12:54.169Z,101345.66
2023-04-17T19:15:23.607Z,101340.63
2023-04-17T19:17:50.680Z,101353.31
2023-04-17T19:20:17.722Z,101351.50
2023-04-17T19:22:44.598Z,101348.50
2023-04-17T19:25:11.393Z,101351.00
2023-04-17T19:27:40.218Z,101359.03
2023-04-17T19:30:08.143Z,101360.22
2023-04-17T19:32:35.060Z,101365.53
2023-04-17T19:35:01.938Z,101367.22
2023-04-17T19:37:28.873Z,101369.22
2023-04-17T19:39:56.794Z,101382.06
2023-04-17T19:42:27.263Z,101379.25
2023-04-17T19:44:53.998Z,101382.59
2023-04-17T19:47:20.784Z,101373.03
2023-04-17T19:49:47.833Z,101377.22
2023-04-17T19:52:15.472Z,101368.53
2023-04-17T19:54:45.458Z,101360.00
2023-04-17T19:57:12.259Z,101369.84
2023-04-17T19:59:39.153Z,101364.31
2023-04-17T20:02:06.792Z,101364.13
2023-04-17T20:04:33.656Z,101355.63
2023-04-17T20:07:02.984Z,101356.94
2023-04-17T20:09:31.514Z,101353.94
2023-04-17T20:11:59.382Z,101356.78
2023-04-17T20:14:26.643Z,101356.59
2023-04-17T20:16:53.313Z,101349.75
2023-04-17T20:19:20.599Z,101357.56
2023-04-17T20:21:47.747Z,101362.06
2023-04-17T20:24:16.286Z,101358.19
2023-04-17T20:26:46.362Z,101356.50
2023-04-17T20:29:13.388Z,101357.75
2023-04-17T20:31:40.423Z,101351.03
2023-04-17T20:34:07.171Z,101370.16
2023-04-17T20:36:33.848Z,101353.09
2023-04-17T20:39:00.536Z,101341.88
2023-04-17T20:41:29.156Z,101360.78
2023-04-17T20:43:58.109Z,101352.06
2023-04-17T20:46:25.944Z,101356.19
2023-04-17T20:48:52.768Z,101355.97
2023-04-17T20:51:20.969Z,101351.25
2023-04-17T20:53:47.887Z,101353.78
2023-04-17T20:56:14.813Z,101352.56
2023-04-17T20:58:41.624Z,101347.84
2023-04-17T21:01:09.290Z,101347.09
2023-04-17T21:03:36.049Z,101344.34
2023-04-17T21:06:02.888Z,101334.69
2023-04-17T21:08:29.598Z,101340.09
2023-04-17T21:10:56.370Z,101339.59
2023-04-17T21:13:23.514Z,101334.97
2023-04-17T21:15:50.206Z,101327.03
2023-04-17T21:18:16.856Z,101333.13
2023-04-17T21:20:43.876Z,101330.22
2023-04-17T21:23:11.493Z,101324.56
2023-04-17T21:25:38.487Z,101322.50
2023-04-17T21:28:06.114Z,101334.88
2023-04-17T21:30:33.624Z,101329.47
2023-04-17T21:33:00.736Z,101327.47
2023-04-17T21:35:30.243Z,101326.38
2023-04-17T21:37:57.366Z,101323.44
2023-04-17T21:40:26.403Z,101329.19
2023-04-17T21:43:00.026Z,101318.28
2023-04-17T21:45:27.267Z,101330.06
2023-04-17T21:47:54.444Z,101328.44
2023-04-17T21:50:23.338Z,101315.31
2023-04-17T21:52:50.800Z,101320.63
2023-04-17T21:55:20.187Z,101317.97
2023-04-17T21:57:46.844Z,101319.97
2023-04-17T22:00:14.513Z,101321.50
2023-04-17T22:02:41.406Z,101316.88
2023-04-17T22:05:08.281Z,101319.09
2023-04-17T22:07:43.961Z,101319.81
2023-04-17T22:10:20.677Z,101311.97
2023-04-17T22:12:47.288Z,101309.03
2023-04-17T22:15:13.971Z,101307.25
2023-04-17T22:17:41.239Z,101317.63
2023-04-17T22:20:08.664Z,101310.25
2023-04-17T22:22:41.069Z,101305.63
2023-04-17T22:25:08.096Z,101302.69
2023-04-17T22:27:34.827Z,101305.78
2023-04-17T22:30:01.648Z,101297.13
2023-04-17T22:32:28.330Z,101300.91
2023-04-17T22:34:55.326Z,101295.13
2023-04-17T22:37:22.150Z,101287.16
2023-04-17T22:39:49.665Z,101292.75
2023-04-17T22:42:16.599Z,101289.78
2023-04-17T22:44:43.413Z,101289.91
2023-04-17T22:47:15.035Z,101278.69
2023-04-17T22:49:42.574Z,101282.16
2023-04-17T22:52:09.344Z,101289.31
2023-04-17T22:54:36.199Z,101290.97
2023-04-17T22:57:03.113Z,101290.38
2023-04-17T22:59:30.132Z,101288.56
2023-04-17T23:01:57.206Z,101291.47
2023-04-17T23:04:24.159Z,101286.00
2023-04-17T23:06:54.415Z,101284.03
2023-04-17T23:09:22.073Z,101284.72
2023-04-17T23:11:49.124Z,101293.25
2023-04-17T23:14:16.135Z,101277.13
2023-04-17T23:16:45.476Z,101288.03
2023-04-17T23:19:12.363Z,101279.91
2023-04-17T23:21:39.099Z,101283.94
2023-04-17T23:24:08.129Z,101284.03
2023-04-17T23:26:34.826Z,101291.84
2023-04-17T23:29:01.504Z,101289.44
2023-04-17T23:31:28.528Z,101281.28
2023-04-17T23:33:55.887Z,101284.81
2023-04-17T23:36:24.863Z,101282.97
2023-04-17T23:38:51.887Z,101280.69
2023-04-17T23:41:18.517Z,101291.19
2023-04-17T23:43:45.311Z,101285.41
2023-04-17T23:46:12.348Z,101286.34
2023-04-17T23:48:41.343Z,101292.72
2023-04-17T23:51:08.992Z,101298.72
2023-04-17T23:53:35.670Z,101299.41
2023-04-17T23:56:02.381Z,101298.59
2023-04-17T23:58:29.577Z,101299.03
